Time,TemperatureF,DewpointF,PressureIn,WindDirection,WindDirectionDegrees,WindSpeedMPH,WindSpeedGustMPH,Humidity,HourlyPrecipIn,Conditions,Clouds,dailyrainin,SoftwareType,DateUTC
2013-10-03 00:01:00,52.1,52.1,26.91,NW,318,0.0,0.0,100,0.00,,,-99.99,VWS V12.07,2013-10-03 04:01:00,
2013-10-03 00:31:00,51.5,51.5,26.91,NW,319,0.0,0.0,100,0.00,,,-99.99,VWS V12.07,2013-10-03 04:31:00,
2013-10-03 01:01:00,51.2,51.2,26.91,NW,318,0.0,0.0,100,0.00,,,-99.99,VWS V12.07,2013-10-03 05:01:00,
2013-10-03 01:31:00,51.1,51.1,26.91,NW,318,0.0,0.0,100,0.00,,,-99.99,VWS V12.07,2013-10-03 05:31:00,
2013-10-03 02:01:00,51.7,51.7,26.90,NW,316,0.0,0.0,100,0.00,,,-99.99,VWS V12.07,2013-10-03 06:01:00,
2013-10-03 02:31:00,51.4,51.4,26.89,NW,316,0.0,0.0,100,0.00,,,-99.99,VWS V12.07,2013-10-03 06:31:00,
2013-10-03 03:01:00,51.4,51.4,26.88,NW,316,0.0,0.0,100,0.00,,,-99.99,VWS V12.07,2013-10-03 07:01:00,
2013-10-03 03:31:00,52.0,52.0,26.88,NW,317,0.0,0.0,100,0.00,,,-99.99,VWS V12.07,2013-10-03 07:31:00,
2013-10-03 04:01:00,51.5,51.5,26.89,NW,316,0.0,0.0,100,0.00,,,-99.99,VWS V12.07,2013-10-03 08:01:00,
2013-10-03 04:31:00,51.5,51.5,26.88,NW,317,0.0,1.0,100,0.00,,,-99.99,VWS V12.07,2013-10-03 08:31:00,
2013-10-03 05:01:00,52.5,52.5,26.89,NW,316,0.0,1.0,100,0.00,,,-99.99,VWS V12.07,2013-10-03 09:01:00,
2013-10-03 05:31:00,52.5,52.5,26.89,NW,315,0.0,0.0,100,0.00,,,-99.99,VWS V12.07,2013-10-03 09:31:00,
2013-10-03 06:01:00,52.8,52.8,26.90,NW,309,0.0,0.0,100,0.00,,,-99.99,VWS V12.07,2013-10-03 10:01:00,
2013-10-03 06:31:00,52.5,52.5,26.90,NW,310,0.0,0.0,100,0.01,,,-99.99,VWS V12.07,2013-10-03 10:31:00,
2013-10-03 07:01:00,52.8,52.8,26.90,NW,310,0.0,0.0,100,0.01,,,-99.99,VWS V12.07,2013-10-03 11:01:00,
2013-10-03 07:31:00,54.1,54.1,26.91,NW,308,0.0,0.0,100,0.00,,,-99.99,VWS V12.07,2013-10-03 11:31:00,
2013-10-03 08:01:00,55.8,55.8,26.91,NW,308,0.0,0.0,100,0.00,,,-99.99,VWS V12.07,2013-10-03 12:01:00,
2013-10-03 08:31:00,59.4,59.4,26.91,WNW,296,0.0,0.0,100,0.00,,,-99.99,VWS V12.07,2013-10-03 12:31:00,
2013-10-03 09:01:00,61.4,61.4,26.92,WNW,303,0.0,0.0,100,0.00,,,-99.99,VWS V12.07,2013-10-03 13:01:00,
2013-10-03 09:31:00,64.4,63.2,26.92,WNW,299,1.0,1.0,96,0.00,,,-99.99,VWS V12.07,2013-10-03 13:31:00,
2013-10-03 10:01:00,67.0,63.7,26.92,NW,304,3.0,185.0,89,0.00,,,-99.99,VWS V12.07,2013-10-03 14:01:00,
2013-10-03 10:31:00,66.5,63.5,26.92,ENE,67,0.0,1.0,90,0.00,,,-99.99,VWS V12.07,2013-10-03 14:31:00,
2013-10-03 11:01:00,68.3,63.3,26.91,NE,53,0.0,0.0,84,0.00,,,-99.99,VWS V12.07,2013-10-03 15:01:00,
2013-10-03 11:31:00,68.5,63.8,26.91,NNE,30,0.0,0.0,85,0.00,,,-99.99,VWS V12.07,2013-10-03 15:31:00,
2013-10-03 12:01:00,68.3,64.0,26.91,SE,131,0.0,0.0,86,0.00,,,-99.99,VWS V12.07,2013-10-03 16:01:00,
2013-10-03 12:31:00,69.5,64.8,26.90,East,80,0.0,0.0,85,0.00,,,-99.99,VWS V12.07,2013-10-03 16:31:00,
2013-10-03 13:01:00,67.8,63.5,26.89,East,91,0.0,0.0,86,0.00,,,-99.99,VWS V12.07,2013-10-03 17:01:00,
2013-10-03 13:31:00,68.2,63.9,26.89,East,99,0.0,0.0,86,0.00,,,-99.99,VWS V12.07,2013-10-03 17:31:00,
2013-10-03 14:01:00,67.7,63.7,26.88,NE,44,0.0,0.0,87,0.00,,,-99.99,VWS V12.07,2013-10-03 18:01:00,
2013-10-03 14:31:00,67.4,63.7,26.88,NE,43,0.0,0.0,88,0.00,,,-99.99,VWS V12.07,2013-10-03 18:31:00,
2013-10-03 15:01:00,68.5,64.8,26.87,ENE,60,0.0,0.0,88,0.00,,,-99.99,VWS V12.07,2013-10-03 19:01:00,
2013-10-03 15:31:00,67.7,63.7,26.87,ENE,59,0.0,0.0,87,0.00,,,-99.99,VWS V12.07,2013-10-03 19:31:00,
2013-10-03 16:01:00,67.7,63.7,26.87,NE,50,0.0,0.0,87,0.00,,,-99.99,VWS V12.07,2013-10-03 20:01:00,
2013-10-03 16:31:00,68.0,63.3,26.87,NE,49,0.0,0.0,85,0.00,,,-99.99,VWS V12.07,2013-10-03 20:31:00,
2013-10-03 17:01:00,68.5,63.1,26.87,NE,56,0.0,0.0,83,0.00,,,-99.99,VWS V12.07,2013-10-03 21:01:00,
2013-10-03 17:31:00,67.0,63.3,26.88,NE,54,0.0,0.0,88,0.00,,,-99.99,VWS V12.07,2013-10-03 21:31:00,
2013-10-03 18:01:00,65.8,63.1,26.88,ENE,59,0.0,0.0,91,0.00,,,-99.99,VWS V12.07,2013-10-03 22:01:00,
2013-10-03 18:31:00,64.3,62.8,26.88,NE,55,0.0,0.0,95,0.00,,,-99.99,VWS V12.07,2013-10-03 22:31:00,
2013-10-03 19:01:00,63.3,62.7,26.88,NE,54,0.0,0.0,98,0.00,,,-99.99,VWS V12.07,2013-10-03 23:01:00,
2013-10-03 19:31:00,62.0,62.0,26.89,NE,54,0.0,0.0,100,0.00,,,-99.99,VWS V12.07,2013-10-03 23:31:00,
2013-10-03 20:01:00,60.4,60.4,26.89,NE,54,0.0,0.0,100,0.00,,,-99.99,VWS V12.07,2013-10-04 00:01:00,
2013-10-03 20:31:00,59.1,59.1,26.90,NE,55,0.0,0.0,100,0.00,,,-99.99,VWS V12.07,2013-10-04 00:31:00,
2013-10-03 21:01:00,57.9,57.9,26.90,ENE,60,0.0,0.0,100,0.00,,,-99.99,VWS V12.07,2013-10-04 01:01:00,
2013-10-03 21:31:00,57.1,57.1,26.90,ENE,60,0.0,0.0,100,0.00,,,-99.99,VWS V12.07,2013-10-04 01:31:00,
2013-10-03 22:01:00,56.8,56.8,26.90,NE,50,0.0,0.0,100,0.00,,,-99.99,VWS V12.07,2013-10-04 02:01:00,
2013-10-03 22:31:00,56.2,56.2,26.90,NE,47,0.0,0.0,100,0.00,,,-99.99,VWS V12.07,2013-10-04 02:31:00,
2013-10-03 23:01:00,56.3,56.3,26.90,NE,47,0.0,0.0,100,0.00,,,-99.99,VWS V12.07,2013-10-04 03:01:00,